Time;durP1;ratioP1;P1;durP2;ratioP2;P2;SDS_P1;SDS_P2;PMS_P1;PMS_P2;Temp;Humidity;BMP_temperature;BMP_pressure;BME280_temperature;BME280_humidity;BME280_pressure;Samples;Min_cycle;Max_cycle;Signal;HPM_P1;HPM_P2
2022/12/07 00:01:10;;;;;;;14.80;11.40;;;;;;;1.68;100.00;98494.59;105925;1293;65072;-75
2022/12/07 00:03:39;;;;;;;12.70;10.00;;;;;;;1.67;100.00;98492.84;105917;1291;59706;-74
2022/12/07 00:06:08;;;;;;;14.60;10.80;;;;;;;1.69;100.00;98495.41;105932;1286;60164;-74
2022/12/07 00:08:34;;;;;;;13.60;9.90;;;;;;;1.69;100.00;98495.58;105935;1290;68065;-74
2022/12/07 00:11:09;;;;;;;12.60;10.80;;;;;;;1.69;100.00;98486.80;105947;1292;60170;-74
2022/12/07 00:13:37;;;;;;;12.80;11.20;;;;;;;1.69;100.00;98485.76;105916;1295;71599;-74
2022/12/07 00:16:06;;;;;;;12.30;10.80;;;;;;;1.69;100.00;98485.05;105752;1295;59768;-74
2022/12/07 00:18:33;;;;;;;14.70;10.80;;;;;;;1.69;100.00;98484.02;105668;1295;60817;-74
2022/12/07 00:21:02;;;;;;;13.60;12.00;;;;;;;1.68;100.00;98479.84;105766;1292;74603;-73
2022/12/07 00:23:28;;;;;;;16.40;11.20;;;;;;;1.68;100.00;98480.39;105918;1295;61120;-73
2022/12/07 00:25:54;;;;;;;19.00;12.80;;;;;;;1.67;100.00;98479.39;105957;1290;59755;-74
2022/12/07 00:28:21;;;;;;;14.90;11.60;;;;;;;1.66;100.00;98475.38;105895;1290;59717;-74
2022/12/07 00:30:47;;;;;;;14.20;11.20;;;;;;;1.67;100.00;98476.93;105939;1273;60291;-74
2022/12/07 00:33:13;;;;;;;13.50;11.30;;;;;;;1.67;100.00;98479.17;105775;1290;59827;-75
2022/12/07 00:35:40;;;;;;;19.20;13.30;;;;;;;1.69;100.00;98479.12;105928;1289;59949;-73
2022/12/07 00:38:07;;;;;;;17.20;12.50;;;;;;;1.71;100.00;98475.88;105900;1289;60015;-73
2022/12/07 00:40:33;;;;;;;17.10;13.90;;;;;;;1.72;100.00;98473.94;105911;1290;59760;-73
2022/12/07 00:43:00;;;;;;;16.80;13.10;;;;;;;1.73;100.00;98469.84;105946;1291;59742;-73
2022/12/07 00:45:26;;;;;;;18.40;14.30;;;;;;;1.74;100.00;98465.41;105922;1290;59730;-73
2022/12/07 00:47:52;;;;;;;17.50;13.50;;;;;;;1.75;100.00;98464.33;105818;1292;60107;-73
2022/12/07 00:50:19;;;;;;;16.60;13.90;;;;;;;1.77;100.00;98462.70;105867;1289;60109;-74
2022/12/07 00:52:45;;;;;;;15.50;12.90;;;;;;;1.78;100.00;98462.14;105882;1291;59786;-73
2022/12/07 00:55:10;;;;;;;16.40;14.50;;;;;;;1.78;100.00;98461.26;105924;1290;59796;-74
2022/12/07 00:57:37;;;;;;;14.90;12.40;;;;;;;1.78;100.00;98463.52;105914;1290;59827;-73
2022/12/07 01:00:04;;;;;;;17.40;13.90;;;;;;;1.78;100.00;98464.21;105959;1292;59781;-73
2022/12/07 01:02:29;;;;;;;15.80;13.80;;;;;;;1.79;100.00;98460.52;105946;1290;59778;-73
2022/12/07 01:04:56;;;;;;;18.50;13.20;;;;;;;1.81;100.00;98461.33;105978;1292;59788;-73
2022/12/07 01:07:22;;;;;;;18.20;15.00;;;;;;;1.82;100.00;98460.39;105995;1288;59765;-73
2022/12/07 01:09:48;;;;;;;17.40;14.60;;;;;;;1.82;100.00;98458.83;106005;1282;60641;-72
2022/12/07 01:12:14;;;;;;;14.10;12.00;;;;;;;1.83;100.00;98451.27;106021;1289;59848;-73
2022/12/07 01:14:41;;;;;;;13.40;11.90;;;;;;;1.84;100.00;98447.85;105702;1294;59638;-73
2022/12/07 01:17:07;;;;;;;15.00;11.50;;;;;;;1.86;100.00;98444.47;105864;1290;60741;-73
2022/12/07 01:19:33;;;;;;;13.30;11.30;;;;;;;1.86;100.00;98439.38;105858;1290;59687;-73
2022/12/07 01:21:59;;;;;;;16.10;12.40;;;;;;;1.86;100.00;98440.59;105868;1285;60104;-73
2022/12/07 01:24:25;;;;;;;18.10;13.60;;;;;;;1.87;100.00;98439.16;105867;1291;59855;-73
2022/12/07 01:26:51;;;;;;;14.10;11.90;;;;;;;1.89;100.00;98435.08;105863;1284;59944;-73
2022/12/07 01:29:18;;;;;;;15.90;12.70;;;;;;;1.90;100.00;98434.51;105605;1293;59813;-73
2022/12/07 01:31:44;;;;;;;12.40;11.20;;;;;;;1.92;100.00;98432.50;105848;1285;59769;-73
2022/12/07 01:34:10;;;;;;;13.60;11.40;;;;;;;1.93;100.00;98432.44;105862;1291;59745;-74
2022/12/07 01:36:37;;;;;;;12.90;11.50;;;;;;;1.94;100.00;98432.58;105880;1273;59695;-74
2022/12/07 01:39:07;;;;;;;13.60;12.00;;;;;;;1.96;100.00;98430.23;105631;1292;59860;-74
2022/12/07 01:41:40;;;;;;;15.90;12.40;;;;;;;1.96;100.00;98426.35;105680;1297;60120;-73
2022/12/07 01:44:14;;;;;;;14.40;12.90;;;;;;;1.97;100.00;98425.77;105917;1285;67686;-73
2022/12/07 01:46:41;;;;;;;19.60;15.10;;;;;;;2.00;100.00;98425.50;105942;1289;61089;-72
2022/12/07 01:49:12;;;;;;;20.00;15.40;;;;;;;2.02;100.00;98425.41;105909;1284;65031;-72
2022/12/07 01:51:41;;;;;;;13.90;12.40;;;;;;;2.03;100.00;98424.48;105913;1295;60028;-73
2022/12/07 01:54:11;;;;;;;15.80;13.20;;;;;;;2.04;100.00;98422.89;105924;1293;59708;-74
2022/12/07 01:56:38;;;;;;;;;;;;;;;2.05;100.00;98423.20;105933;1291;68111;-73
2022/12/07 01:59:04;;;;;;;15.10;12.70;;;;;;;2.05;100.00;98420.90;105924;1284;61189;-74
2022/12/07 02:01:30;;;;;;;14.30;12.40;;;;;;;2.07;100.00;98418.75;105915;1293;59683;-73
2022/12/07 02:03:56;;;;;;;17.90;15.20;;;;;;;2.08;100.00;98415.70;105909;1298;59836;-73
2022/12/07 02:06:25;;;;;;;17.00;13.40;;;;;;;2.10;100.00;98417.55;105911;1290;59753;-74
2022/12/07 02:08:52;;;;;;;15.30;13.30;;;;;;;2.12;100.00;98420.61;105942;1289;67728;-73
2022/12/07 02:11:19;;;;;;;20.10;15.90;;;;;;;2.14;100.00;98418.96;105763;1292;60881;-73
2022/12/07 02:13:46;;;;;;;18.90;15.30;;;;;;;2.16;100.00;98417.31;105758;1291;65159;-74
2022/12/07 02:16:29;;;;;;;15.50;13.90;;;;;;;2.18;100.00;98418.27;105902;1284;59723;-73
2022/12/07 02:19:24;;;;;;;17.30;15.00;;;;;;;2.19;100.00;98416.13;105915;1289;60423;-73
2022/12/07 02:22:27;;;;;;;17.60;15.00;;;;;;;2.20;100.00;98418.00;105923;1290;66898;-73
2022/12/07 02:25:18;;;;;;;18.30;15.50;;;;;;;2.22;100.00;98418.45;105934;1283;60204;-74
2022/12/07 02:27:55;;;;;;;19.00;15.50;;;;;;;2.24;100.00;98420.98;105742;1293;65199;-74
2022/12/07 02:30:28;;;;;;;16.60;14.70;;;;;;;2.26;100.00;98419.49;105915;1289;59678;-75
2022/12/07 02:33:00;;;;;;;19.20;14.60;;;;;;;2.27;100.00;98419.98;105925;1295;59783;-74
2022/12/07 02:35:48;;;;;;;18.40;16.10;;;;;;;2.28;100.00;98418.54;105915;1284;66839;-74
2022/12/07 02:38:23;;;;;;;17.20;15.20;;;;;;;2.31;100.00;98414.91;105922;1291;68557;-74
2022/12/07 02:41:05;;;;;;;16.60;14.60;;;;;;;2.31;100.00;98414.55;105931;1289;62655;-73
2022/12/07 02:43:38;;;;;;;16.60;14.40;;;;;;;2.32;100.00;98414.00;105769;1300;59656;-75
2022/12/07 02:46:09;;;;;;;18.50;15.90;;;;;;;2.33;100.00;98415.71;105979;1292;59921;-73
2022/12/07 02:48:38;;;;;;;18.60;15.80;;;;;;;2.34;100.00;98411.64;105926;1284;75342;-73
2022/12/07 02:51:04;;;;;;;18.50;15.60;;;;;;;2.33;100.00;98408.66;105945;1290;60957;-73
2022/12/07 02:53:40;;;;;;;17.20;15.40;;;;;;;2.34;100.00;98406.52;105914;1291;64294;-74
2022/12/07 02:56:25;;;;;;;17.40;15.60;;;;;;;2.36;100.00;98405.08;105918;1290;59858;-73
2022/12/07 02:59:26;;;;;;;18.70;16.70;;;;;;;2.36;100.00;98406.63;105914;1291;61424;-73
2022/12/07 03:02:11;;;;;;;16.50;14.70;;;;;;;2.37;100.00;98410.08;105924;1291;65694;-73
2022/12/07 03:04:43;;;;;;;20.60;17.40;;;;;;;2.38;100.00;98413.39;105647;1290;59951;-73
2022/12/07 03:07:34;;;;;;;17.20;15.50;;;;;;;2.39;100.00;98412.13;105893;1290;65025;-73
2022/12/07 03:10:16;;;;;;;17.40;15.50;;;;;;;2.39;100.00;98411.40;105934;1291;59749;-74
2022/12/07 03:12:52;;;;;;;17.90;16.10;;;;;;;2.40;100.00;98408.58;105916;1297;59878;-73
2022/12/07 03:15:26;;;;;;;19.20;16.90;;;;;;;2.40;100.00;98406.29;105941;1289;68005;-74
2022/12/07 03:17:56;;;;;;;18.40;16.30;;;;;;;2.41;100.00;98405.55;105933;1281;60123;-74
2022/12/07 03:20:25;;;;;;;18.40;16.40;;;;;;;2.41;100.00;98407.11;105903;1290;65630;-74
2022/12/07 03:22:53;;;;;;;19.50;16.50;;;;;;;2.42;100.00;98400.59;105926;1290;59970;-73
2022/12/07 03:25:20;;;;;;;19.50;15.90;;;;;;;2.43;100.00;98398.45;105933;1291;59663;-73
2022/12/07 03:28:00;;;;;;;17.20;15.10;;;;;;;2.43;100.00;98397.05;105678;1292;59855;-73
2022/12/07 03:30:34;;;;;;;18.40;15.80;;;;;;;2.44;100.00;98393.67;105939;1290;68953;-74
2022/12/07 03:33:07;;;;;;;20.60;17.60;;;;;;;2.44;100.00;98390.16;105912;1290;65265;-74
2022/12/07 03:35:40;;;;;;;19.70;17.50;;;;;;;2.45;100.00;98385.38;105903;1297;59725;-74
2022/12/07 03:38:12;;;;;;;18.30;15.70;;;;;;;2.46;100.00;98385.00;105916;1291;59723;-74
2022/12/07 03:41:05;;;;;;;22.00;18.00;;;;;;;2.46;100.00;98385.55;105922;1291;66682;-74
2022/12/07 03:43:32;;;;;;;20.10;16.60;;;;;;;2.46;100.00;98385.20;105927;1283;61386;-74
2022/12/07 03:46:17;;;;;;;18.00;15.80;;;;;;;2.45;100.00;98382.58;105924;1291;73655;-74
2022/12/07 03:48:48;;;;;;;21.30;17.30;;;;;;;2.45;100.00;98392.76;105912;1290;59821;-74
2022/12/07 03:51:33;;;;;;;20.80;16.40;;;;;;;2.44;100.00;98392.79;105920;1290;59611;-74
2022/12/07 03:54:06;;;;;;;18.80;16.40;;;;;;;2.44;100.00;98395.61;105909;1291;67499;-73
2022/12/07 03:56:34;;;;;;;20.70;17.10;;;;;;;2.43;100.00;98391.10;105916;1284;61275;-73
2022/12/07 03:59:00;;;;;;;19.00;16.40;;;;;;;2.42;100.00;98387.43;105824;1291;64994;-73
2022/12/07 04:01:25;;;;;;;20.70;17.80;;;;;;;2.42;100.00;98389.90;105924;1291;59801;-73
2022/12/07 04:03:51;;;;;;;19.20;16.10;;;;;;;2.41;100.00;98390.81;105926;1291;59700;-73
2022/12/07 04:06:17;;;;;;;20.90;17.30;;;;;;;2.38;100.00;98387.23;105929;1284;60081;-73
2022/12/07 04:08:43;;;;;;;18.10;15.80;;;;;;;2.37;100.00;98384.16;105907;1290;60169;-73
2022/12/07 04:11:09;;;;;;;18.80;15.90;;;;;;;2.36;100.00;98385.59;105902;1284;60116;-73
2022/12/07 04:14:18;;;;;;;19.50;16.20;;;;;;;2.36;100.00;98384.02;105893;1296;59745;-73
2022/12/07 04:16:21;;;;;;;19.80;16.40;;;;;;;2.35;100.00;98385.11;105955;1284;59747;-73
2022/12/07 04:18:47;;;;;;;18.00;15.40;;;;;;;2.34;100.00;98386.21;105925;1283;59693;-73
2022/12/07 04:21:13;;;;;;;19.60;16.40;;;;;;;2.34;100.00;98388.14;105930;1291;59735;-73
2022/12/07 04:23:39;;;;;;;20.50;16.10;;;;;;;2.33;100.00;98386.94;105910;1283;59867;-73
2022/12/07 04:26:05;;;;;;;20.00;15.90;;;;;;;2.33;100.00;98387.80;105773;1292;60208;-74
2022/12/07 04:28:31;;;;;;;18.90;16.00;;;;;;;2.33;100.00;98386.45;105917;1284;59678;-76
2022/12/07 04:30:57;;;;;;;18.60;16.00;;;;;;;2.32;100.00;98386.99;105938;1290;59793;-73
2022/12/07 04:33:23;;;;;;;19.60;16.20;;;;;;;2.32;100.00;98388.56;105928;1290;59701;-73
2022/12/07 04:35:49;;;;;;;20.40;17.60;;;;;;;2.32;100.00;98393.84;105931;1285;59656;-73
2022/12/07 04:38:15;;;;;;;22.70;20.10;;;;;;;2.32;100.00;98395.95;105689;1293;59742;-73
2022/12/07 04:40:41;;;;;;;27.60;21.40;;;;;;;2.31;100.00;98399.67;105918;1292;59753;-74
2022/12/07 04:43:07;;;;;;;24.40;20.00;;;;;;;2.28;100.00;98400.70;105903;1283;59857;-74
2022/12/07 04:45:33;;;;;;;27.60;21.90;;;;;;;2.23;100.00;98402.80;105895;1284;59812;-74
2022/12/07 04:47:59;;;;;;;22.40;17.00;;;;;;;2.19;100.00;98402.64;105893;1291;59769;-75
2022/12/07 04:50:24;;;;;;;16.90;14.00;;;;;;;2.14;100.00;98410.23;105911;1290;60197;-73
2022/12/07 04:52:50;;;;;;;16.60;14.80;;;;;;;2.07;100.00;98412.27;105906;1283;60116;-72
2022/12/07 04:55:17;;;;;;;17.20;15.40;;;;;;;1.99;100.00;98410.10;105951;1284;59728;-73
2022/12/07 04:57:42;;;;;;;16.60;13.20;;;;;;;1.93;100.00;98411.24;105889;1292;59745;-72
2022/12/07 05:00:10;;;;;;;15.50;12.30;;;;;;;1.90;100.00;98413.30;105919;1288;59957;-72
2022/12/07 05:02:36;;;;;;;14.60;12.30;;;;;;;1.85;100.00;98416.64;105159;1283;1002269;-72
2022/12/07 05:05:02;;;;;;;15.70;13.00;;;;;;;1.78;100.00;98416.94;105891;1291;59748;-72
2022/12/07 05:07:29;;;;;;;14.40;12.30;;;;;;;1.72;100.00;98421.39;105910;1290;65308;-74
2022/12/07 05:09:55;;;;;;;17.10;12.80;;;;;;;1.65;100.00;98423.21;105937;1287;59705;-74
2022/12/07 05:12:21;;;;;;;14.40;12.60;;;;;;;1.61;100.00;98423.21;105945;1290;59748;-74
2022/12/07 05:14:47;;;;;;;13.60;10.60;;;;;;;1.58;100.00;98422.99;105915;1291;59645;-74
2022/12/07 05:17:14;;;;;;;13.80;11.80;;;;;;;1.55;100.00;98418.04;105931;1282;59827;-74
2022/12/07 05:19:39;;;;;;;13.00;11.00;;;;;;;1.53;100.00;98417.77;105908;1290;59746;-74
2022/12/07 05:22:05;;;;;;;13.20;11.80;;;;;;;1.50;100.00;98417.71;105912;1290;59734;-73
2022/12/07 05:24:31;;;;;;;14.70;11.50;;;;;;;1.49;100.00;98415.80;105935;1290;59787;-74
2022/12/07 05:26:57;;;;;;;14.30;12.40;;;;;;;1.47;100.00;98418.17;105923;1289;60038;-73
2022/12/07 05:29:23;;;;;;;13.50;12.10;;;;;;;1.45;100.00;98421.23;105941;1285;59804;-73
2022/12/07 05:31:49;;;;;;;14.30;12.70;;;;;;;1.44;100.00;98422.15;105904;1290;59777;-72
2022/12/07 05:34:16;;;;;;;15.60;12.40;;;;;;;1.45;100.00;98422.98;105937;1290;59730;-73
2022/12/07 05:36:42;;;;;;;14.30;12.00;;;;;;;1.44;100.00;98427.38;105954;1290;59892;-72
2022/12/07 05:39:10;;;;;;;13.80;11.60;;;;;;;1.43;100.00;98423.44;105904;1291;59701;-73
2022/12/07 05:44:20;;;;;;;14.20;11.00;;;;;;;1.42;100.00;98426.79;105890;1291;60342;-72
2022/12/07 05:46:46;;;;;;;15.60;13.10;;;;;;;1.40;100.00;98427.20;105939;1291;59717;-73
2022/12/07 05:49:12;;;;;;;16.20;13.50;;;;;;;1.40;100.00;98426.86;105917;1284;59789;-73
2022/12/07 05:51:38;;;;;;;15.00;13.00;;;;;;;1.40;100.00;98427.41;105907;1284;60135;-73
2022/12/07 05:54:04;;;;;;;14.50;13.00;;;;;;;1.38;100.00;98430.27;105922;1283;59972;-73
2022/12/07 05:56:30;;;;;;;13.80;12.40;;;;;;;1.38;100.00;98430.45;105926;1283;59695;-73
2022/12/07 06:01:41;;;;;;;16.30;13.60;;;;;;;1.37;100.00;98426.13;105918;1282;67678;-74
2022/12/07 06:04:07;;;;;;;16.20;13.40;;;;;;;1.37;100.00;98427.52;105975;1290;59949;-73
2022/12/07 06:06:33;;;;;;;16.50;13.50;;;;;;;1.36;100.00;98425.06;105898;1291;59722;-74
2022/12/07 06:08:59;;;;;;;15.60;13.90;;;;;;;1.36;100.00;98423.68;105916;1287;59706;-74
2022/12/07 06:14:10;;;;;;;15.80;12.40;;;;;;;1.33;100.00;98429.25;105905;1283;76368;-73
2022/12/07 06:16:36;;;;;;;16.00;13.30;;;;;;;1.32;100.00;98428.56;105921;1290;59767;-73
2022/12/07 06:19:01;;;;;;;16.10;13.30;;;;;;;1.33;100.00;98429.59;105907;1283;59884;-73
2022/12/07 06:21:28;;;;;;;19.10;15.30;;;;;;;1.33;100.00;98429.43;105946;1291;59839;-74
2022/12/07 06:23:54;;;;;;;19.00;15.00;;;;;;;1.33;100.00;98432.39;105912;1283;59782;-74
2022/12/07 06:26:20;;;;;;;20.70;17.20;;;;;;;1.34;100.00;98430.79;105668;1291;59938;-73
2022/12/07 06:28:46;;;;;;;21.40;16.60;;;;;;;1.35;100.00;98434.95;105853;1283;59820;-74
2022/12/07 06:31:12;;;;;;;23.90;18.00;;;;;;;1.36;100.00;98434.90;105753;1290;59793;-74
2022/12/07 06:33:38;;;;;;;28.00;17.10;;;;;;;1.36;100.00;98437.69;105849;1290;59814;-73
2022/12/07 06:36:04;;;;;;;23.60;16.40;;;;;;;1.37;100.00;98437.50;105918;1290;59954;-74
2022/12/07 06:38:30;;;;;;;20.10;15.80;;;;;;;1.37;100.00;98435.91;105859;1290;60189;-74
2022/12/07 06:40:56;;;;;;;19.00;14.40;;;;;;;1.38;100.00;98442.53;105826;1291;60404;-74
2022/12/07 06:43:22;;;;;;;14.90;12.90;;;;;;;1.38;100.00;98446.55;105823;1287;59757;-74
2022/12/07 06:45:48;;;;;;;15.80;12.50;;;;;;;1.37;100.00;98445.52;105887;1291;59993;-74
2022/12/07 06:48:14;;;;;;;14.50;12.00;;;;;;;1.36;100.00;98446.80;105837;1290;60154;-75
2022/12/07 06:50:40;;;;;;;16.20;13.00;;;;;;;1.36;100.00;98451.85;105845;1288;60170;-74
2022/12/07 06:53:07;;;;;;;15.50;12.60;;;;;;;1.35;100.00;98453.48;105855;1283;60026;-73
2022/12/07 06:55:33;;;;;;;16.00;13.60;;;;;;;1.35;100.00;98454.02;105864;1290;60022;-73
2022/12/07 06:57:59;;;;;;;16.50;14.40;;;;;;;1.34;100.00;98459.10;105663;1284;59898;-73
2022/12/07 07:00:25;;;;;;;17.80;14.80;;;;;;;1.33;100.00;98462.65;105924;1290;60218;-72
2022/12/07 07:02:51;;;;;;;17.60;14.40;;;;;;;1.31;100.00;98463.08;105837;1290;65474;-72
2022/12/07 07:05:17;;;;;;;16.30;14.40;;;;;;;1.29;100.00;98468.40;105649;1295;60195;-73
2022/12/07 07:07:43;;;;;;;19.00;15.20;;;;;;;1.27;100.00;98468.31;105850;1290;59780;-73
2022/12/07 07:10:09;;;;;;;18.60;15.80;;;;;;;1.27;100.00;98467.79;105889;1284;60098;-71
2022/12/07 07:12:36;;;;;;;21.20;17.00;;;;;;;1.29;100.00;98466.29;105879;1283;59857;-73
2022/12/07 07:15:05;;;;;;;22.00;17.80;;;;;;;1.31;100.00;98466.56;105840;1290;59677;-74
2022/12/07 07:17:30;;;;;;;20.80;17.20;;;;;;;1.34;100.00;98462.60;105739;1292;59964;-77
2022/12/07 07:19:56;;;;;;;22.40;18.40;;;;;;;1.36;100.00;98465.68;105780;1286;59734;-73
2022/12/07 07:22:22;;;;;;;22.80;17.30;;;;;;;1.39;100.00;98465.92;105849;1290;60076;-73
2022/12/07 07:24:48;;;;;;;26.30;19.70;;;;;;;1.41;100.00;98464.09;105831;1290;59956;-74
2022/12/07 07:27:14;;;;;;;38.80;26.20;;;;;;;1.45;100.00;98465.17;105843;1291;59787;-74
2022/12/07 07:29:40;;;;;;;33.00;22.80;;;;;;;1.49;100.00;98457.83;105905;1290;59848;-74
2022/12/07 07:32:07;;;;;;;73.70;38.30;;;;;;;1.52;100.00;98456.50;105903;1289;59793;-74
2022/12/07 07:34:33;;;;;;;30.60;22.50;;;;;;;1.57;100.00;98461.02;105722;1285;60038;-74
2022/12/07 07:37:00;;;;;;;28.80;24.60;;;;;;;1.59;100.00;98464.96;105898;1283;59762;-75
2022/12/07 07:39:25;;;;;;;23.10;20.20;;;;;;;1.63;100.00;98467.42;105884;1285;59826;-73
2022/12/07 07:41:51;;;;;;;22.50;19.20;;;;;;;1.66;100.00;98471.70;105937;1290;59749;-73
2022/12/07 07:44:17;;;;;;;21.80;17.60;;;;;;;1.67;100.00;98471.31;105918;1290;67990;-73
2022/12/07 07:46:43;;;;;;;19.60;16.80;;;;;;;1.67;100.00;98466.58;105897;1290;59753;-73
2022/12/07 07:49:10;;;;;;;23.80;18.20;;;;;;;1.68;100.00;98469.33;105917;1290;59833;-74
2022/12/07 07:51:36;;;;;;;26.70;19.80;;;;;;;1.70;100.00;98469.10;105821;1285;59671;-74
2022/12/07 07:54:03;;;;;;;23.40;17.90;;;;;;;1.72;100.00;98474.27;105912;1290;60189;-74
2022/12/07 07:56:29;;;;;;;23.30;16.90;;;;;;;1.74;100.00;98471.36;105886;1290;59751;-74
2022/12/07 07:58:55;;;;;;;18.80;15.10;;;;;;;1.76;100.00;98465.38;105827;1283;59728;-74
2022/12/07 08:01:21;;;;;;;20.20;16.20;;;;;;;1.80;100.00;98470.27;105164;1290;1002813;-74
2022/12/07 08:03:48;;;;;;;17.20;13.30;;;;;;;1.85;100.00;98471.86;105897;1283;59789;-74
2022/12/07 08:06:14;;;;;;;18.10;14.10;;;;;;;1.87;100.00;98473.67;105188;1290;1002965;-73
2022/12/07 08:08:40;;;;;;;16.20;13.50;;;;;;;1.91;100.00;98473.52;105916;1290;59727;-74
2022/12/07 08:11:08;;;;;;;20.10;13.80;;;;;;;1.95;100.00;98475.11;105900;1284;59678;-74
2022/12/07 08:13:34;;;;;;;20.60;14.70;;;;;;;1.97;100.00;98478.52;105896;1283;59703;-74
2022/12/07 08:16:04;;;;;;;19.70;14.40;;;;;;;2.02;100.00;98477.29;105860;1287;59987;-75
2022/12/07 08:18:30;;;;;;;17.80;14.50;;;;;;;2.05;100.00;98475.77;105858;1284;59659;-74
2022/12/07 08:21:00;;;;;;;17.40;14.00;;;;;;;2.08;100.00;98477.40;105914;1290;59708;-74
2022/12/07 08:23:26;;;;;;;19.50;14.20;;;;;;;2.11;100.00;98476.02;105671;1292;68559;-74
2022/12/07 08:25:53;;;;;;;16.90;13.60;;;;;;;2.15;100.00;98477.27;105779;1292;60250;-74
2022/12/07 08:28:19;;;;;;;19.50;15.10;;;;;;;2.18;100.00;98478.71;105958;1290;59689;-74
2022/12/07 08:30:44;;;;;;;17.20;13.30;;;;;;;2.23;100.00;98481.30;105950;1283;59928;-74
2022/12/07 08:33:11;;;;;;;18.80;15.20;;;;;;;2.27;100.00;98485.54;105909;1290;59753;-75
2022/12/07 08:35:37;;;;;;;21.00;15.70;;;;;;;2.28;100.00;98488.81;105901;1290;59850;-74
2022/12/07 08:38:03;;;;;;;21.30;15.50;;;;;;;2.28;100.00;98488.14;105857;1290;59773;-74
2022/12/07 08:40:30;;;;;;;23.10;15.90;;;;;;;2.31;100.00;98487.14;105904;1291;59722;-74
2022/12/07 08:42:56;;;;;;;18.60;15.90;;;;;;;2.33;100.00;98489.66;105946;1290;60126;-74
2022/12/07 08:45:22;;;;;;;19.90;16.20;;;;;;;2.35;100.00;98489.42;105904;1290;59757;-74
2022/12/07 08:48:02;;;;;;;20.40;16.50;;;;;;;2.36;100.00;98490.41;105923;1284;60087;-74
2022/12/07 08:50:29;;;;;;;18.80;15.30;;;;;;;2.40;100.00;98487.64;105864;1288;64429;-73
2022/12/07 08:52:58;;;;;;;18.30;14.70;;;;;;;2.45;100.00;98482.71;105872;1289;59660;-72
2022/12/07 08:55:25;;;;;;;20.30;16.40;;;;;;;2.49;100.00;98480.95;105911;1291;60087;-75
2022/12/07 08:57:51;;;;;;;21.00;17.20;;;;;;;2.55;100.00;98482.44;105627;1294;68148;-73
2022/12/07 09:00:17;;;;;;;22.00;17.20;;;;;;;2.60;100.00;98483.27;105915;1283;59761;-74
2022/12/07 09:02:45;;;;;;;20.60;18.20;;;;;;;2.64;100.00;98483.64;105859;1290;72537;-74
2022/12/07 09:05:14;;;;;;;21.50;17.30;;;;;;;2.66;100.00;98480.23;105894;1291;59653;-73
2022/12/07 09:07:45;;;;;;;19.10;15.90;;;;;;;2.68;100.00;98489.59;105878;1291;60399;-73
2022/12/07 09:10:13;;;;;;;20.60;16.40;;;;;;;2.67;100.00;98486.67;105860;1282;65560;-74
2022/12/07 09:12:39;;;;;;;17.30;14.50;;;;;;;2.64;100.00;98483.81;105927;1282;59898;-74
2022/12/07 09:15:07;;;;;;;15.90;13.30;;;;;;;2.63;100.00;98479.10;105786;1290;59783;-73
2022/12/07 09:17:37;;;;;;;14.10;10.60;;;;;;;2.64;100.00;98480.30;105752;1284;59762;-74
2022/12/07 09:20:07;;;;;;;13.10;11.70;;;;;;;2.63;100.00;98473.84;105861;1283;59754;-74
2022/12/07 09:22:33;;;;;;;12.00;10.70;;;;;;;2.63;100.00;98477.36;105681;1285;76690;-74
2022/12/07 09:25:00;;;;;;;12.30;9.70;;;;;;;2.62;100.00;98475.43;105884;1290;59912;-74
2022/12/07 09:27:26;;;;;;;10.80;9.70;;;;;;;2.64;100.00;98474.69;105898;1291;63986;-74
2022/12/07 09:29:52;;;;;;;10.90;9.00;;;;;;;2.67;100.00;98472.80;105889;1290;59698;-74
2022/12/07 09:32:19;;;;;;;12.00;8.90;;;;;;;2.69;100.00;98472.37;105186;1277;1002452;-75
2022/12/07 09:34:45;;;;;;;9.20;8.20;;;;;;;2.70;100.00;98470.73;105907;1284;59757;-74
2022/12/07 09:37:11;;;;;;;11.30;8.70;;;;;;;2.70;100.00;98469.88;105894;1284;59740;-74
2022/12/07 09:39:38;;;;;;;12.30;9.00;;;;;;;2.69;100.00;98466.95;105876;1290;59788;-74
2022/12/07 09:42:05;;;;;;;12.30;9.50;;;;;;;2.72;100.00;98465.55;105915;1290;59704;-74
2022/12/07 09:44:32;;;;;;;10.80;9.70;;;;;;;2.75;100.00;98463.15;105911;1283;59734;-74
2022/12/07 09:46:59;;;;;;;11.80;9.60;;;;;;;2.79;100.00;98459.30;105948;1282;67079;-74
2022/12/07 09:49:29;;;;;;;11.70;9.50;;;;;;;2.85;100.00;98453.08;105156;1293;1002402;-74
2022/12/07 09:52:16;;;;;;;10.10;8.70;;;;;;;2.88;100.00;98452.77;105885;1291;65068;-74
2022/12/07 09:54:47;;;;;;;9.00;8.10;;;;;;;2.92;100.00;98448.91;105914;1290;60088;-74
2022/12/07 09:57:13;;;;;;;9.00;8.00;;;;;;;2.95;100.00;98447.71;105827;1291;59763;-73
2022/12/07 09:59:40;;;;;;;10.40;9.30;;;;;;;2.96;100.00;98446.27;105870;1290;59712;-74
2022/12/07 10:02:38;;;;;;;10.60;9.50;;;;;;;2.97;100.00;98445.68;105937;1283;67855;-74
2022/12/07 10:05:07;;;;;;;11.00;10.00;;;;;;;2.97;100.00;98442.34;105907;1289;65016;-74
2022/12/07 10:07:33;;;;;;;10.40;9.20;;;;;;;2.97;100.00;98437.95;105891;1291;60122;-74
2022/12/07 10:10:02;;;;;;;8.10;7.10;;;;;;;3.02;100.00;98433.50;105911;1290;59552;-74
2022/12/07 10:12:28;;;;;;;9.30;8.30;;;;;;;3.11;100.00;98432.61;105905;1290;66963;-74
2022/12/07 10:15:04;;;;;;;10.40;7.50;;;;;;;3.19;100.00;98431.54;105917;1283;60134;-74
2022/12/07 10:17:55;;;;;;;11.00;9.80;;;;;;;3.28;100.00;98428.32;105830;1274;63742;-74
2022/12/07 10:20:25;;;;;;;11.90;10.30;;;;;;;3.35;100.00;98424.82;105888;1283;59599;-74
2022/12/07 10:22:59;;;;;;;11.60;9.10;;;;;;;3.43;100.00;98420.58;105892;1283;59903;-75
2022/12/07 10:25:32;;;;;;;12.00;10.30;;;;;;;3.54;100.00;98417.42;105904;1285;77005;-74
2022/12/07 10:28:12;;;;;;;13.50;12.10;;;;;;;3.60;100.00;98413.12;105895;1290;59695;-74
2022/12/07 10:30:56;;;;;;;13.40;10.40;;;;;;;3.63;100.00;98409.98;105930;1290;65298;-74
2022/12/07 10:33:36;;;;;;;11.80;10.40;;;;;;;3.71;100.00;98401.63;105785;1285;60081;-75
2022/12/07 10:36:18;;;;;;;;;;;;;;;3.80;100.00;98400.71;105921;1284;59613;-75
2022/12/07 10:38:58;;;;;;;12.30;11.00;;;;;;;3.90;100.00;98397.38;105936;1283;67965;-78
2022/12/07 10:41:24;;;;;;;13.20;11.90;;;;;;;4.04;100.00;98389.14;105882;1281;60853;-75
2022/12/07 10:43:54;;;;;;;11.70;9.20;;;;;;;4.23;100.00;98384.15;105798;1284;60228;-74
2022/12/07 10:46:42;;;;;;;11.20;8.70;;;;;;;4.38;100.00;98382.35;105521;1292;205736;-73
2022/12/07 10:49:29;;;;;;;9.30;7.30;;;;;;;4.50;100.00;98379.75;105940;1288;59550;-75
2022/12/07 10:52:09;;;;;;;9.00;7.30;;;;;;;4.63;100.00;98380.67;105880;1282;75380;-75
2022/12/07 10:54:54;;;;;;;8.50;7.20;;;;;;;4.65;100.00;98378.10;105912;1288;61355;-75
2022/12/07 10:57:30;;;;;;;7.60;6.10;;;;;;;4.60;100.00;98376.45;105922;1288;62457;-74
2022/12/07 11:00:14;;;;;;;8.80;7.00;;;;;;;4.52;100.00;98373.70;105856;1291;59702;-75
2022/12/07 11:03:01;;;;;;;7.00;6.10;;;;;;;4.53;100.00;98376.82;105923;1291;59838;-74
2022/12/07 11:05:39;;;;;;;8.10;6.90;;;;;;;4.51;100.00;98376.02;105896;1290;67937;-75
2022/12/07 11:08:21;;;;;;;6.60;5.80;;;;;;;4.46;100.00;98374.69;105910;1290;60781;-74
2022/12/07 11:11:16;;;;;;;6.90;5.90;;;;;;;4.45;100.00;98369.13;105654;1293;64726;-74
2022/12/07 11:14:03;;;;;;;6.50;5.50;;;;;;;4.63;100.00;98371.33;105828;1293;59780;-74
2022/12/07 11:16:34;;;;;;;5.20;4.70;;;;;;;4.80;100.00;98368.31;105934;1291;59631;-74
2022/12/07 11:19:23;;;;;;;5.90;5.00;;;;;;;4.83;100.00;98363.93;105942;1282;67633;-75
2022/12/07 11:22:03;;;;;;;5.30;4.70;;;;;;;4.83;100.00;98363.39;105929;1290;68634;-74
2022/12/07 11:24:54;;;;;;;5.00;4.40;;;;;;;4.75;100.00;98367.51;105912;1291;65211;-75
2022/12/07 11:27:39;;;;;;;5.10;4.60;;;;;;;4.71;100.00;98370.02;105946;1282;59702;-75
2022/12/07 11:30:37;;;;;;;5.90;5.00;;;;;;;4.70;100.00;98369.42;105930;1290;60091;-74
2022/12/07 11:33:21;;;;;;;6.00;4.40;;;;;;;4.65;100.00;98370.52;105928;1285;76748;-75